createdAt,value
2019-03-08T00:01:44.425Z,0.88
2019-03-08T00:04:14.812Z,0.65
2019-03-08T00:06:45.120Z,0.68
2019-03-08T00:09:15.391Z,0.60
2019-03-08T00:11:45.641Z,0.72
2019-03-08T00:14:15.856Z,0.95
2019-03-08T00:16:46.281Z,0.50
2019-03-08T00:19:16.572Z,0.70
2019-03-08T00:21:46.851Z,0.70
2019-03-08T00:24:17.184Z,0.68
2019-03-08T00:26:47.440Z,0.70
2019-03-08T00:29:17.791Z,0.65
2019-03-08T00:31:48.024Z,0.80
2019-03-08T00:34:18.222Z,0.70
2019-03-08T00:36:48.427Z,0.85
2019-03-08T00:39:18.712Z,0.55
2019-03-08T00:41:48.990Z,1.72
2019-03-08T00:44:19.215Z,0.90
2019-03-08T00:46:49.474Z,1.17
2019-03-08T00:49:19.747Z,0.80
2019-03-08T00:51:50.002Z,0.70
2019-03-08T00:54:20.222Z,0.60
2019-03-08T00:56:50.751Z,0.80
2019-03-08T00:59:21.048Z,0.60
2019-03-08T01:01:51.321Z,0.80
2019-03-08T01:04:21.604Z,1.15
2019-03-08T01:06:51.805Z,0.70
2019-03-08T01:09:22.597Z,0.80
2019-03-08T01:11:52.855Z,0.70
2019-03-08T01:14:23.116Z,0.60
2019-03-08T01:16:53.682Z,1.12
2019-03-08T01:19:23.936Z,0.53
2019-03-08T01:21:54.491Z,0.70
2019-03-08T01:24:24.752Z,0.70
2019-03-08T01:26:54.934Z,0.68
2019-03-08T01:29:25.263Z,0.60
2019-03-08T01:31:55.542Z,0.50
2019-03-08T01:34:26.094Z,0.75
2019-03-08T01:36:56.419Z,0.62
2019-03-08T01:39:26.668Z,0.72
2019-03-08T01:41:56.969Z,0.68
2019-03-08T01:44:27.152Z,0.70
2019-03-08T01:46:57.433Z,0.90
2019-03-08T01:49:27.682Z,0.70
2019-03-08T01:51:57.940Z,0.60
2019-03-08T01:54:28.140Z,0.70
2019-03-08T01:56:58.443Z,0.80
2019-03-08T01:59:28.712Z,0.60
2019-03-08T02:01:58.985Z,0.60
2019-03-08T02:04:29.312Z,0.50
2019-03-08T02:06:59.597Z,0.50
2019-03-08T02:09:29.785Z,0.60
2019-03-08T02:12:00.064Z,0.50
2019-03-08T02:14:30.413Z,0.40
2019-03-08T02:17:00.673Z,0.60
2019-03-08T02:19:31.079Z,0.50
2019-03-08T02:22:01.345Z,0.50
2019-03-08T02:24:31.529Z,0.60
2019-03-08T02:27:02.100Z,0.40
2019-03-08T02:29:32.366Z,0.60
2019-03-08T02:32:02.641Z,0.53
2019-03-08T02:34:32.935Z,0.50
2019-03-08T02:37:03.137Z,0.50
2019-03-08T02:39:33.397Z,0.40
2019-03-08T02:42:03.717Z,0.40
2019-03-08T02:44:34.031Z,0.50
2019-03-08T02:47:04.207Z,0.40
2019-03-08T02:49:34.481Z,0.40
2019-03-08T02:52:04.756Z,0.50
2019-03-08T02:54:35.028Z,0.40
2019-03-08T02:57:05.306Z,0.60
2019-03-08T02:59:35.657Z,0.40
2019-03-08T03:02:06.013Z,0.45
2019-03-08T03:04:36.316Z,0.40
2019-03-08T03:07:06.573Z,0.47
2019-03-08T03:09:36.838Z,0.40
2019-03-08T03:12:07.044Z,0.50
2019-03-08T03:14:37.319Z,0.50
2019-03-08T03:17:07.502Z,0.53
2019-03-08T03:19:37.677Z,0.40
2019-03-08T03:22:07.871Z,0.40
2019-03-08T03:24:38.073Z,0.60
2019-03-08T03:27:08.233Z,0.40
2019-03-08T03:29:38.529Z,0.40
2019-03-08T03:32:08.951Z,0.40
2019-03-08T03:34:39.194Z,0.40
2019-03-08T03:37:09.451Z,0.50
2019-03-08T03:39:39.640Z,0.45
2019-03-08T03:42:09.804Z,0.40
2019-03-08T03:44:40.220Z,0.40
2019-03-08T03:47:10.402Z,0.40
2019-03-08T03:49:40.565Z,0.45
2019-03-08T03:52:10.766Z,0.50
2019-03-08T03:54:41.036Z,0.53
2019-03-08T03:57:11.230Z,0.40
2019-03-08T03:59:41.488Z,0.50
2019-03-08T04:02:11.748Z,0.50
2019-03-08T04:04:41.944Z,0.45
2019-03-08T04:07:12.120Z,0.50
2019-03-08T04:09:42.380Z,0.40
2019-03-08T04:12:12.685Z,0.60
2019-03-08T04:14:42.962Z,0.40
2019-03-08T04:17:13.235Z,0.50
2019-03-08T04:19:43.579Z,0.50
2019-03-08T04:22:13.797Z,0.50
2019-03-08T04:24:44.047Z,0.40
2019-03-08T04:27:14.254Z,0.50
2019-03-08T04:29:44.464Z,0.40
2019-03-08T04:32:14.740Z,0.40
2019-03-08T04:34:44.913Z,0.50
2019-03-08T04:37:15.426Z,0.60
2019-03-08T04:39:45.613Z,0.50
2019-03-08T04:42:15.796Z,0.50
2019-03-08T04:44:46.061Z,0.40
2019-03-08T04:47:16.297Z,0.40
2019-03-08T04:49:46.661Z,0.40
2019-03-08T04:52:16.858Z,0.40
2019-03-08T04:54:47.090Z,0.57
2019-03-08T04:57:17.274Z,0.40
2019-03-08T04:59:49.043Z,0.40
2019-03-08T05:02:19.484Z,0.40
2019-03-08T05:04:49.689Z,0.40
2019-03-08T05:07:19.956Z,0.40
2019-03-08T05:09:50.195Z,0.47
2019-03-08T05:12:31.746Z,0.50
2019-03-08T05:15:02.114Z,0.47
2019-03-08T05:17:32.292Z,0.40
2019-03-08T05:20:02.517Z,0.40
2019-03-08T05:22:32.694Z,0.47
2019-03-08T05:25:03.056Z,0.50
2019-03-08T05:27:33.545Z,0.40
2019-03-08T05:30:03.864Z,0.50
2019-03-08T05:32:34.122Z,0.40
2019-03-08T05:35:04.752Z,0.40
2019-03-08T05:37:34.957Z,0.50
2019-03-08T05:40:05.936Z,0.50
2019-03-08T05:42:36.096Z,0.55
2019-03-08T05:45:06.701Z,0.55
2019-03-08T05:47:36.956Z,0.57
2019-03-08T05:50:07.318Z,0.50
2019-03-08T05:52:37.522Z,0.50
2019-03-08T05:55:07.856Z,0.42
2019-03-08T05:57:38.221Z,0.60
2019-03-08T06:00:09.708Z,0.50
2019-03-08T06:02:39.930Z,0.75
2019-03-08T06:05:10.494Z,0.50
2019-03-08T06:07:41.109Z,0.60
2019-03-08T06:10:48.894Z,0.60
2019-03-08T06:13:19.086Z,0.60
2019-03-08T06:15:49.474Z,0.60
2019-03-08T06:18:19.842Z,0.70
2019-03-08T06:20:50.347Z,0.80
2019-03-08T06:23:20.783Z,0.60
2019-03-08T06:25:51.242Z,0.70
2019-03-08T06:28:21.703Z,0.80
2019-03-08T06:30:52.268Z,0.95
2019-03-08T06:33:22.679Z,0.85
2019-03-08T06:35:53.048Z,0.75
2019-03-08T06:38:23.456Z,0.60
2019-03-08T06:40:54.178Z,0.70
2019-03-08T06:43:24.686Z,0.60
2019-03-08T06:45:55.025Z,0.70
2019-03-08T06:48:25.418Z,0.90
2019-03-08T06:50:55.949Z,0.70
2019-03-08T06:53:26.421Z,0.93
2019-03-08T06:55:56.879Z,0.90
2019-03-08T06:58:39.058Z,0.60
2019-03-08T07:01:12.129Z,0.80
2019-03-08T07:03:42.537Z,0.80
2019-03-08T07:06:12.963Z,0.80
2019-03-08T07:08:43.397Z,0.70
2019-03-08T07:11:13.749Z,0.60
2019-03-08T07:13:44.125Z,0.68
2019-03-08T07:16:14.478Z,0.70
2019-03-08T07:18:45.541Z,0.60
2019-03-08T07:21:24.157Z,0.60
2019-03-08T07:24:12.494Z,0.85
2019-03-08T07:27:00.726Z,0.80
2019-03-08T07:29:57.006Z,0.90
2019-03-08T07:32:55.979Z,0.80
2019-03-08T07:35:51.198Z,0.70
2019-03-08T07:38:40.526Z,0.80
2019-03-08T07:41:29.160Z,0.70
2019-03-08T07:44:28.142Z,0.80
2019-03-08T07:47:07.782Z,0.90
2019-03-08T07:50:06.642Z,0.70
2019-03-08T07:52:49.994Z,0.70
2019-03-08T07:55:39.686Z,0.60
2019-03-08T07:58:29.070Z,0.70
2019-03-08T08:01:31.182Z,0.70
2019-03-08T08:04:19.596Z,0.70
2019-03-08T08:07:14.092Z,0.70
2019-03-08T08:10:06.351Z,1.00
2019-03-08T08:12:55.699Z,0.70
2019-03-08T08:15:45.540Z,0.80
2019-03-08T08:18:29.523Z,0.80
2019-03-08T08:21:18.830Z,0.90
2019-03-08T08:23:56.287Z,0.93
2019-03-08T08:26:35.538Z,0.70
2019-03-08T08:29:18.666Z,0.88
2019-03-08T08:32:11.399Z,0.80
2019-03-08T08:34:59.739Z,0.70
2019-03-08T08:37:51.850Z,0.70
2019-03-08T08:40:33.083Z,0.98
2019-03-08T08:43:34.783Z,2.02
2019-03-08T08:46:27.382Z,0.90
2019-03-08T08:49:08.533Z,1.45
2019-03-08T08:51:44.921Z,0.70
2019-03-08T08:54:34.249Z,0.82
2019-03-08T08:57:23.227Z,1.55
2019-03-08T09:00:15.514Z,1.40
2019-03-08T09:02:57.585Z,0.80
2019-03-08T09:05:36.207Z,0.60
2019-03-08T09:08:19.673Z,0.80
2019-03-08T09:11:11.854Z,0.80
2019-03-08T09:13:50.547Z,0.80
2019-03-08T09:16:36.298Z,1.65
2019-03-08T09:19:16.459Z,0.70
2019-03-08T09:22:08.782Z,0.70
2019-03-08T09:24:47.251Z,0.65
2019-03-08T09:27:27.572Z,0.88
2019-03-08T09:30:25.992Z,0.70
2019-03-08T09:33:04.288Z,0.70
2019-03-08T09:35:50.191Z,0.65
2019-03-08T09:38:45.414Z,1.00
2019-03-08T09:41:22.451Z,1.00
2019-03-08T09:44:12.034Z,0.80
2019-03-08T09:46:57.324Z,1.20
2019-03-08T09:49:52.702Z,1.10
2019-03-08T09:52:45.098Z,0.78
2019-03-08T09:55:44.016Z,0.65
2019-03-08T09:58:37.222Z,1.10
2019-03-08T10:01:25.537Z,0.60
2019-03-08T10:04:04.817Z,0.70
2019-03-08T10:06:56.863Z,0.60
2019-03-08T10:09:42.140Z,0.68
2019-03-08T10:12:34.586Z,0.80
2019-03-08T10:15:23.234Z,0.95
2019-03-08T10:18:09.022Z,0.80
2019-03-08T10:20:50.931Z,0.78
2019-03-08T10:23:55.408Z,0.68
2019-03-08T10:26:44.786Z,0.72
2019-03-08T10:29:43.411Z,0.70
2019-03-08T10:32:37.057Z,0.72
2019-03-08T10:35:23.943Z,0.90
2019-03-08T10:38:03.378Z,0.60
2019-03-08T10:40:45.846Z,0.50
2019-03-08T10:43:44.770Z,0.62
2019-03-08T10:46:32.860Z,0.80
2019-03-08T10:49:34.566Z,0.80
2019-03-08T10:52:33.103Z,0.63
2019-03-08T10:55:22.434Z,0.63
2019-03-08T10:58:11.759Z,0.80
2019-03-08T11:01:03.853Z,0.70
2019-03-08T11:04:06.059Z,0.90
2019-03-08T11:07:01.674Z,0.75
2019-03-08T11:09:57.776Z,0.70
2019-03-08T11:12:56.109Z,0.63
2019-03-08T11:15:57.431Z,0.80
2019-03-08T11:19:08.227Z,0.67
2019-03-08T11:21:53.080Z,0.73
2019-03-08T11:25:07.822Z,1.37
2019-03-08T11:28:06.992Z,0.90
2019-03-08T11:30:55.951Z,0.90
2019-03-08T11:34:03.675Z,0.90
2019-03-08T11:36:38.578Z,0.70
2019-03-08T11:39:40.707Z,0.80
2019-03-08T11:42:30.248Z,0.70
2019-03-08T11:45:22.263Z,0.90
2019-03-08T11:48:11.622Z,0.87
2019-03-08T11:51:07.087Z,0.80
2019-03-08T11:53:56.161Z,0.80
2019-03-08T11:56:45.629Z,0.90
2019-03-08T11:59:41.090Z,0.82
2019-03-08T12:02:42.840Z,0.90
2019-03-08T12:05:30.831Z,0.70
2019-03-08T12:08:08.406Z,0.65
2019-03-08T12:10:56.894Z,0.70
2019-03-08T12:13:36.316Z,0.75
2019-03-08T12:16:28.998Z,1.10
2019-03-08T12:19:12.489Z,0.60
2019-03-08T12:21:55.727Z,1.00
2019-03-08T12:24:34.753Z,0.70
2019-03-08T12:27:24.132Z,0.70
2019-03-08T12:30:25.679Z,0.65
2019-03-08T12:33:08.510Z,0.85
2019-03-08T12:36:07.159Z,0.70
2019-03-08T12:38:46.313Z,1.07
2019-03-08T12:41:28.134Z,1.10
2019-03-08T12:44:29.830Z,0.60
2019-03-08T12:47:31.297Z,1.00
2019-03-08T12:50:30.075Z,0.70
2019-03-08T12:53:15.629Z,0.65
2019-03-08T12:55:54.437Z,0.75
2019-03-08T12:58:42.747Z,0.90
2019-03-08T13:01:32.138Z,0.90
2019-03-08T13:04:10.776Z,1.15
2019-03-08T13:07:15.343Z,0.70
2019-03-08T13:09:48.770Z,0.70
2019-03-08T13:12:19.437Z,0.60
2019-03-08T13:14:49.909Z,1.00
2019-03-08T13:17:20.662Z,0.60
2019-03-08T13:19:51.042Z,0.90
2019-03-08T13:22:21.438Z,0.60
2019-03-08T13:24:51.809Z,0.90
2019-03-08T13:27:22.206Z,0.60
2019-03-08T13:29:52.727Z,1.00
2019-03-08T13:32:23.097Z,0.80
2019-03-08T13:34:53.504Z,0.68
2019-03-08T13:37:23.933Z,1.20
2019-03-08T13:39:54.306Z,1.00
2019-03-08T13:42:24.677Z,1.20
2019-03-08T13:44:55.162Z,0.90
2019-03-08T13:47:25.622Z,1.10
2019-03-08T13:49:56.066Z,1.00
2019-03-08T13:52:26.566Z,0.90
2019-03-08T13:54:57.120Z,0.80
2019-03-08T13:57:27.557Z,0.83
2019-03-08T13:59:57.996Z,0.80
2019-03-08T14:02:28.436Z,1.13
2019-03-08T14:04:58.907Z,0.90
2019-03-08T14:07:29.282Z,1.05
2019-03-08T14:09:59.682Z,0.70
2019-03-08T14:12:30.114Z,0.70
2019-03-08T14:15:00.559Z,0.80
2019-03-08T14:17:30.937Z,0.83
2019-03-08T14:20:01.390Z,0.87
2019-03-08T14:22:31.949Z,0.70
2019-03-08T14:25:02.319Z,0.73
2019-03-08T14:27:32.772Z,0.70
2019-03-08T14:30:03.118Z,0.63
2019-03-08T14:32:34.683Z,0.60
2019-03-08T14:35:06.074Z,0.90
2019-03-08T14:37:36.450Z,0.90
2019-03-08T14:40:20.492Z,0.63
2019-03-08T14:42:56.041Z,0.70
2019-03-08T14:45:44.657Z,0.50
2019-03-08T14:48:12.746Z,0.70
2019-03-08T14:50:43.115Z,0.70
2019-03-08T14:53:13.498Z,0.67
2019-03-08T14:55:43.882Z,0.70
2019-03-08T14:58:14.295Z,0.90
2019-03-08T15:00:44.669Z,1.00
2019-03-08T15:03:15.071Z,0.97
2019-03-08T15:05:45.826Z,0.80
2019-03-08T15:08:17.781Z,1.00
2019-03-08T15:10:51.133Z,0.80
2019-03-08T15:13:24.091Z,0.77
2019-03-08T15:15:52.537Z,0.83
2019-03-08T15:18:25.939Z,0.80
2019-03-08T15:20:58.421Z,0.93
2019-03-08T15:23:27.640Z,1.00
2019-03-08T15:25:58.148Z,0.80
2019-03-08T15:28:28.970Z,0.70
2019-03-08T15:30:59.338Z,0.90
2019-03-08T15:33:29.680Z,0.83
2019-03-08T15:36:00.073Z,0.67
2019-03-08T15:38:30.722Z,0.80
2019-03-08T15:41:01.415Z,0.60
2019-03-08T15:43:31.838Z,0.87
2019-03-08T15:46:02.220Z,0.87
2019-03-08T15:48:32.594Z,0.70
2019-03-08T15:51:03.021Z,0.60
2019-03-08T15:53:33.399Z,0.90
2019-03-08T15:56:03.890Z,0.90
2019-03-08T15:58:34.250Z,1.00
2019-03-08T16:01:04.919Z,1.30
2019-03-08T16:03:35.365Z,1.20
2019-03-08T16:06:06.503Z,1.20
2019-03-08T16:08:39.723Z,0.60
2019-03-08T16:11:09.918Z,0.73
2019-03-08T16:13:40.326Z,0.70
2019-03-08T16:16:11.107Z,0.80
2019-03-08T16:18:44.444Z,0.90
2019-03-08T16:21:14.433Z,1.57
2019-03-08T16:23:44.865Z,1.07
2019-03-08T16:26:15.258Z,0.80
2019-03-08T16:28:45.642Z,0.80
2019-03-08T16:31:25.604Z,0.72
2019-03-08T16:33:57.897Z,0.90
2019-03-08T16:36:45.583Z,0.80
2019-03-08T16:39:33.588Z,0.80
2019-03-08T16:42:11.694Z,0.90
2019-03-08T16:44:58.102Z,0.70
2019-03-08T16:47:47.271Z,0.80
2019-03-08T16:50:36.349Z,0.90
2019-03-08T16:53:16.720Z,0.85
2019-03-08T16:56:07.591Z,0.80
2019-03-08T16:58:52.070Z,0.90
2019-03-08T17:01:47.486Z,0.90
2019-03-08T17:04:33.455Z,0.70
2019-03-08T17:07:22.778Z,3.05
2019-03-08T17:10:01.144Z,0.90
2019-03-08T17:12:51.239Z,0.80
2019-03-08T17:15:36.216Z,1.25
2019-03-08T17:18:11.590Z,1.15
2019-03-08T17:20:59.819Z,1.30
2019-03-08T17:24:04.257Z,1.10
2019-03-08T17:26:59.349Z,1.20
2019-03-08T17:29:54.685Z,1.30
2019-03-08T17:32:41.378Z,1.00
2019-03-08T17:35:32.374Z,1.67
2019-03-08T17:38:09.669Z,1.40
2019-03-08T17:40:45.124Z,1.05
2019-03-08T17:43:21.498Z,1.30
2019-03-08T17:46:05.302Z,1.32
2019-03-08T17:49:09.614Z,1.62
2019-03-08T17:52:11.122Z,1.30
2019-03-08T17:54:59.329Z,1.25
2019-03-08T17:58:00.931Z,1.42
2019-03-08T18:00:38.901Z,1.40
2019-03-08T18:03:26.854Z,1.50
2019-03-08T18:06:16.558Z,1.40
2019-03-08T18:09:15.038Z,1.67
2019-03-08T18:12:07.126Z,1.32
2019-03-08T18:14:44.145Z,1.20
2019-03-08T18:17:32.349Z,0.93
2019-03-08T18:20:21.665Z,2.30
2019-03-08T18:23:04.259Z,1.10
2019-03-08T18:25:53.583Z,1.12
2019-03-08T18:28:55.263Z,1.10
2019-03-08T18:31:56.702Z,1.60
2019-03-08T18:34:45.986Z,1.50
2019-03-08T18:37:35.341Z,1.50
2019-03-08T18:40:28.201Z,1.22
2019-03-08T18:43:03.287Z,1.30
2019-03-08T18:45:53.175Z,1.60
2019-03-08T18:48:57.614Z,2.25
2019-03-08T18:51:46.986Z,1.90
2019-03-08T18:54:48.241Z,1.70
2019-03-08T18:57:40.563Z,1.40
2019-03-08T19:00:18.781Z,1.98
2019-03-08T19:03:11.243Z,1.80
2019-03-08T19:05:48.858Z,1.85
2019-03-08T19:08:50.502Z,2.15
2019-03-08T19:11:35.058Z,2.37
2019-03-08T19:14:13.475Z,2.75
2019-03-08T19:17:00.371Z,1.82
2019-03-08T19:19:42.179Z,2.10
2019-03-08T19:22:26.377Z,1.92
2019-03-08T19:25:02.185Z,2.25
2019-03-08T19:27:51.489Z,2.37
2019-03-08T19:30:40.850Z,2.20
2019-03-08T19:33:18.816Z,1.15
2019-03-08T19:36:03.283Z,1.67
2019-03-08T19:38:40.887Z,1.60
2019-03-08T19:41:42.350Z,1.35
2019-03-08T19:44:43.910Z,1.60
2019-03-08T19:47:46.371Z,1.70
2019-03-08T19:50:36.181Z,2.10
2019-03-08T19:53:34.592Z,1.70
2019-03-08T19:56:14.060Z,1.42
2019-03-08T19:59:03.394Z,1.60
2019-03-08T20:01:42.476Z,1.82
2019-03-08T20:04:46.929Z,1.40
2019-03-08T20:07:34.920Z,1.20
2019-03-08T20:10:25.068Z,1.65
2019-03-08T20:13:11.166Z,2.00
2019-03-08T20:15:55.698Z,1.30
2019-03-08T20:19:00.263Z,1.98
2019-03-08T20:21:52.297Z,1.75
2019-03-08T20:24:56.838Z,1.40
2019-03-08T20:27:55.754Z,1.50
2019-03-08T20:30:44.278Z,1.80
2019-03-08T20:33:40.686Z,1.57
2019-03-08T20:36:35.904Z,1.40
2019-03-08T20:39:27.146Z,1.50
2019-03-08T20:42:02.440Z,1.50
2019-03-08T20:44:48.278Z,1.50
2019-03-08T20:47:25.079Z,1.77
2019-03-08T20:49:55.428Z,1.85
2019-03-08T20:52:25.838Z,2.45
2019-03-08T20:54:56.262Z,1.65
2019-03-08T20:57:26.697Z,1.72
2019-03-08T20:59:57.100Z,1.52
2019-03-08T21:02:27.537Z,1.92
2019-03-08T21:04:57.981Z,2.20
2019-03-08T21:07:28.450Z,1.70
2019-03-08T21:09:58.810Z,1.92
2019-03-08T21:12:29.195Z,1.85
2019-03-08T21:14:59.558Z,2.17
2019-03-08T21:17:29.950Z,2.00
2019-03-08T21:20:00.337Z,2.10
2019-03-08T21:22:30.726Z,1.52
2019-03-08T21:25:01.110Z,1.60
2019-03-08T21:27:31.714Z,3.20
2019-03-08T21:30:02.118Z,2.10
2019-03-08T21:32:32.526Z,1.75
2019-03-08T21:35:02.977Z,1.98
2019-03-08T21:37:33.450Z,2.25
2019-03-08T21:40:04.390Z,2.50
2019-03-08T21:42:36.817Z,1.45
2019-03-08T21:45:08.197Z,2.35
2019-03-08T21:47:38.607Z,2.90
2019-03-08T21:50:11.006Z,1.80
2019-03-08T21:52:41.395Z,1.90
2019-03-08T21:55:11.830Z,2.40
2019-03-08T21:57:42.217Z,2.10
2019-03-08T22:00:15.276Z,1.82
2019-03-08T22:02:45.965Z,2.37
2019-03-08T22:05:19.453Z,1.65
2019-03-08T22:07:49.860Z,2.00
2019-03-08T22:10:32.179Z,1.50
2019-03-08T22:13:02.643Z,1.60
2019-03-08T22:15:33.014Z,1.60
2019-03-08T22:18:03.469Z,1.17
2019-03-08T22:20:33.863Z,1.92
2019-03-08T22:23:04.241Z,1.30
2019-03-08T22:25:34.621Z,2.02
2019-03-08T22:28:05.898Z,1.70
2019-03-08T22:30:36.262Z,1.30
2019-03-08T22:33:06.650Z,1.50
2019-03-08T22:35:37.442Z,1.70
2019-03-08T22:38:07.827Z,1.20
2019-03-08T22:40:38.210Z,1.30
2019-03-08T22:43:08.591Z,1.30
2019-03-08T22:45:38.969Z,1.20
2019-03-08T22:48:09.654Z,1.10
2019-03-08T22:50:40.130Z,1.50
2019-03-08T22:53:10.511Z,1.10
2019-03-08T22:55:40.898Z,2.05
2019-03-08T22:58:11.298Z,1.30
2019-03-08T23:01:22.666Z,1.00
2019-03-08T23:03:53.044Z,1.30
2019-03-08T23:06:23.467Z,1.10
2019-03-08T23:08:53.943Z,1.20
2019-03-08T23:11:24.366Z,1.20
2019-03-08T23:13:54.801Z,1.45
2019-03-08T23:16:25.745Z,1.00
2019-03-08T23:18:56.130Z,1.32
2019-03-08T23:21:26.559Z,1.30
2019-03-08T23:23:56.978Z,1.20
2019-03-08T23:26:27.951Z,1.67
2019-03-08T23:29:16.753Z,1.65
2019-03-08T23:31:55.011Z,1.25
2019-03-08T23:34:25.386Z,1.70
2019-03-08T23:36:55.759Z,1.42
2019-03-08T23:39:26.174Z,1.25
2019-03-08T23:41:56.626Z,1.65
2019-03-08T23:44:27.046Z,1.70
2019-03-08T23:46:57.497Z,3.40
2019-03-08T23:49:27.889Z,2.10
2019-03-08T23:51:58.330Z,2.70
2019-03-08T23:54:28.815Z,2.00
2019-03-08T23:56:59.206Z,2.45
2019-03-08T23:59:30.098Z,2.50
